Time;durP1;ratioP1;P1;durP2;ratioP2;P2;SDS_P1;SDS_P2;PMS_P1;PMS_P2;Temp;Humidity;BMP_temperature;BMP_pressure;BME280_temperature;BME280_humidity;BME280_pressure;Samples;Min_cycle;Max_cycle;Signal;HPM_P1;HPM_P2
2023/03/25 00:00:51;;;;;;;4.15;1.60;;;8.00;99.90;;;;;;5146100;27;20396;-69
2023/03/25 00:03:18;;;;;;;3.85;0.98;;;8.00;99.90;;;;;;5151091;27;20026;-68
2023/03/25 00:05:44;;;;;;;2.45;0.80;;;8.00;99.90;;;;;;5153950;27;20022;-70
2023/03/25 00:08:09;;;;;;;1.90;0.47;;;8.00;99.90;;;;;;5150055;27;20029;-69
2023/03/25 00:10:35;;;;;;;2.55;0.70;;;8.10;99.90;;;;;;5152592;27;20034;-70
2023/03/25 00:13:04;;;;;;;0.70;0.40;;;8.10;99.90;;;;;;5152266;27;20019;-69
2023/03/25 00:15:32;;;;;;;1.70;0.43;;;8.00;99.90;;;;;;5151933;27;20043;-69
2023/03/25 00:17:59;;;;;;;2.97;0.50;;;7.90;99.90;;;;;;5153034;27;20491;-69
2023/03/25 00:20:26;;;;;;;0.80;0.40;;;7.90;99.90;;;;;;5153396;27;20030;-69
2023/03/25 00:22:52;;;;;;;1.13;0.30;;;7.70;99.90;;;;;;5153470;27;20064;-69
2023/03/25 00:25:19;;;;;;;1.00;0.32;;;7.60;99.90;;;;;;5152617;27;20019;-69
2023/03/25 00:27:46;;;;;;;2.30;0.40;;;7.50;99.90;;;;;;5158083;27;20109;-69
2023/03/25 00:30:14;;;;;;;1.35;0.40;;;7.50;99.90;;;;;;5152449;27;20033;-69
2023/03/25 00:32:40;;;;;;;2.33;0.50;;;7.50;99.90;;;;;;5153318;27;20026;-69
2023/03/25 00:35:07;;;;;;;7.00;1.33;;;7.50;99.90;;;;;;5152411;27;20076;-69
2023/03/25 00:37:33;;;;;;;0.93;0.30;;;7.40;99.90;;;;;;5154082;27;20029;-71
2023/03/25 00:39:58;;;;;;;0.35;0.30;;;7.40;99.90;;;;;;5152808;27;20034;-70
2023/03/25 00:42:26;;;;;;;0.22;0.20;;;7.30;99.90;;;;;;5153828;27;20449;-69
2023/03/25 00:44:53;;;;;;;2.20;0.40;;;7.30;99.90;;;;;;5144048;27;20040;-70
2023/03/25 00:47:20;;;;;;;2.90;0.40;;;7.30;99.90;;;;;;5152418;27;20078;-69
2023/03/25 00:49:47;;;;;;;1.08;0.40;;;7.20;99.90;;;;;;5153722;27;20038;-69
2023/03/25 00:52:14;;;;;;;2.78;0.47;;;7.20;99.90;;;;;;5152450;27;20023;-70
2023/03/25 00:54:40;;;;;;;0.45;0.20;;;7.20;99.90;;;;;;5151471;27;20029;-71
2023/03/25 00:57:05;;;;;;;3.35;0.65;;;7.10;99.90;;;;;;5133538;27;20360;-70
2023/03/25 00:59:31;;;;;;;1.27;0.50;;;7.10;99.90;;;;;;5153490;27;20030;-70
2023/03/25 01:01:57;;;;;;;1.00;0.50;;;7.10;99.90;;;;;;5142288;27;20445;-69
2023/03/25 01:04:23;;;;;;;4.05;0.70;;;7.00;99.90;;;;;;5151471;27;20038;-70
2023/03/25 01:06:50;;;;;;;1.38;0.68;;;7.00;99.90;;;;;;5138163;27;20030;-70
2023/03/25 01:09:18;;;;;;;1.98;0.50;;;7.10;99.90;;;;;;5154279;27;20163;-70
2023/03/25 01:11:44;;;;;;;3.15;0.57;;;7.10;99.90;;;;;;5154561;27;20068;-70
2023/03/25 01:14:13;;;;;;;4.80;1.02;;;7.10;99.90;;;;;;5153839;27;20019;-70
2023/03/25 01:16:39;;;;;;;4.32;1.48;;;7.00;99.90;;;;;;5155412;27;20461;-70
2023/03/25 01:19:05;;;;;;;4.88;0.70;;;7.00;99.90;;;;;;5153150;27;20473;-70
2023/03/25 01:21:34;;;;;;;3.30;0.70;;;7.00;99.90;;;;;;5133789;27;20018;-70
2023/03/25 01:23:59;;;;;;;4.63;0.82;;;7.00;99.90;;;;;;5150480;27;20058;-70
2023/03/25 01:26:25;;;;;;;2.55;0.50;;;7.10;99.90;;;;;;5152279;27;20401;-70
2023/03/25 01:28:52;;;;;;;3.35;0.45;;;7.10;99.90;;;;;;5152843;27;20056;-69
2023/03/25 01:31:18;;;;;;;6.32;0.90;;;7.10;99.90;;;;;;5150837;27;20107;-69
2023/03/25 01:33:44;;;;;;;6.47;0.88;;;7.10;99.90;;;;;;5152807;27;20521;-69
2023/03/25 01:36:11;;;;;;;3.28;0.73;;;7.10;99.90;;;;;;5151246;27;20027;-69
2023/03/25 01:38:38;;;;;;;4.70;0.70;;;7.10;99.90;;;;;;5152649;27;20462;-70
2023/03/25 01:41:05;;;;;;;3.10;0.68;;;7.00;99.90;;;;;;5151436;27;20031;-69
2023/03/25 01:43:32;;;;;;;1.77;0.73;;;7.10;99.90;;;;;;5152099;27;20014;-70
2023/03/25 01:45:58;;;;;;;1.60;0.60;;;7.20;99.90;;;;;;5151085;27;20046;-69
2023/03/25 01:48:37;;;;;;;2.15;0.65;;;7.20;99.90;;;;;;5152417;27;20069;-70
2023/03/25 01:51:14;;;;;;;3.33;0.60;;;7.30;99.90;;;;;;5151547;27;20034;-70
2023/03/25 01:53:41;;;;;;;2.20;0.63;;;7.30;99.90;;;;;;5151372;27;20492;-69
2023/03/25 01:56:10;;;;;;;2.28;0.77;;;7.40;99.90;;;;;;5151163;27;20042;-70
2023/03/25 01:58:37;;;;;;;5.10;0.60;;;7.50;99.90;;;;;;5151931;27;20033;-70
2023/03/25 02:01:03;;;;;;;3.10;1.02;;;7.60;99.90;;;;;;5150024;27;20473;-70
2023/03/25 02:03:30;;;;;;;4.13;0.60;;;7.60;99.90;;;;;;5147157;27;20034;-70
2023/03/25 02:06:06;;;;;;;2.75;0.57;;;7.60;99.90;;;;;;5151517;27;20083;-69
2023/03/25 02:08:37;;;;;;;3.15;0.50;;;7.50;99.90;;;;;;5152804;27;20030;-70
2023/03/25 02:11:05;;;;;;;6.05;0.60;;;7.60;99.90;;;;;;5150980;27;20096;-70
2023/03/25 02:13:33;;;;;;;6.63;0.70;;;7.60;99.90;;;;;;5151028;27;20026;-69
2023/03/25 02:16:33;;;;;;;3.08;0.52;;;7.60;99.90;;;;;;5151609;27;20038;-69
2023/03/25 02:19:35;;;;;;;3.70;0.52;;;7.60;99.90;;;;;;5108746;27;20038;-69
2023/03/25 02:22:49;;;;;;;1.88;0.50;;;7.60;99.90;;;;;;5151045;27;20031;-70
2023/03/25 02:25:57;;;;;;;4.00;0.70;;;7.50;99.90;;;;;;5057073;28;20946;-70
2023/03/25 02:28:55;;;;;;;2.15;0.50;;;7.50;99.90;;;;;;5135012;27;20362;-69
2023/03/25 02:31:42;;;;;;;4.60;0.77;;;7.50;99.90;;;;;;5135320;27;20072;-69
2023/03/25 02:34:38;;;;;;;4.28;0.60;;;7.50;99.90;;;;;;5134615;27;20027;-70
2023/03/25 02:37:25;;;;;;;1.30;0.55;;;7.60;99.90;;;;;;5135623;27;20095;-70
2023/03/25 02:39:58;;;;;;;3.47;0.68;;;7.60;99.90;;;;;;5156288;27;20026;-70
2023/03/25 02:42:32;;;;;;;3.05;0.70;;;7.60;99.90;;;;;;5152137;27;20056;-70
2023/03/25 02:45:02;;;;;;;6.75;0.60;;;7.60;99.90;;;;;;5152137;27;20026;-67
2023/03/25 02:47:33;;;;;;;3.78;0.70;;;7.60;99.90;;;;;;5155053;27;20121;-68
2023/03/25 02:50:08;;;;;;;2.90;0.50;;;7.60;99.90;;;;;;5143614;27;20068;-70
2023/03/25 02:52:39;;;;;;;2.40;0.70;;;7.60;99.90;;;;;;5153621;27;20031;-69
2023/03/25 02:55:09;;;;;;;3.33;0.60;;;7.60;99.90;;;;;;5154668;27;20023;-70
2023/03/25 02:57:40;;;;;;;2.53;0.43;;;7.60;99.90;;;;;;5149449;27;20381;-70
2023/03/25 03:00:14;;;;;;;3.47;0.80;;;7.60;99.90;;;;;;5153962;27;20031;-70
2023/03/25 03:02:44;;;;;;;2.40;0.55;;;7.40;99.90;;;;;;5155780;27;20038;-70
2023/03/25 03:05:49;;;;;;;4.90;0.63;;;7.30;99.90;;;;;;5148250;27;20027;-69
2023/03/25 03:08:17;;;;;;;3.53;0.60;;;7.30;99.90;;;;;;5122297;27;20622;-69
2023/03/25 03:10:56;;;;;;;3.25;0.80;;;7.20;99.90;;;;;;5154871;27;20039;-71
2023/03/25 03:13:32;;;;;;;3.92;0.52;;;7.10;99.90;;;;;;5151519;27;20030;-70
2023/03/25 03:16:16;;;;;;;3.67;0.60;;;7.00;99.90;;;;;;5152015;27;20055;-70
2023/03/25 03:18:51;;;;;;;3.70;0.82;;;6.90;99.90;;;;;;5136536;27;20027;-71
2023/03/25 03:21:28;;;;;;;3.88;0.60;;;6.80;99.90;;;;;;5153611;27;20393;-69
2023/03/25 03:23:56;;;;;;;1.38;0.50;;;6.70;99.90;;;;;;5154713;27;20022;-69
2023/03/25 03:26:37;;;;;;;5.47;0.90;;;6.70;99.90;;;;;;5154408;27;20125;-70
2023/03/25 03:29:19;;;;;;;3.70;0.60;;;6.70;99.90;;;;;;5154157;27;20126;-70
2023/03/25 03:32:14;;;;;;;1.33;0.52;;;6.70;99.90;;;;;;5148273;27;20023;-70
2023/03/25 03:34:52;;;;;;;1.77;0.60;;;6.60;99.90;;;;;;5154941;27;20042;-70
2023/03/25 03:37:23;;;;;;;4.45;0.70;;;6.70;99.90;;;;;;5155225;27;20520;-69
2023/03/25 03:39:51;;;;;;;3.10;0.43;;;6.80;99.90;;;;;;5175929;27;20464;-70
2023/03/25 03:42:26;;;;;;;2.72;0.52;;;6.90;99.90;;;;;;5168416;27;20607;-69
2023/03/25 03:45:17;;;;;;;3.30;0.40;;;7.00;99.90;;;;;;5154983;27;20027;-69
2023/03/25 03:47:47;;;;;;;1.38;0.45;;;7.00;99.90;;;;;;5153271;27;20396;-70
2023/03/25 03:50:38;;;;;;;0.40;0.30;;;7.00;99.90;;;;;;5152789;27;20053;-69
2023/03/25 03:53:21;;;;;;;0.95;0.20;;;7.10;99.90;;;;;;5152459;27;20566;-70
2023/03/25 03:55:56;;;;;;;0.60;0.10;;;7.10;99.90;;;;;;5154789;27;20019;-71
2023/03/25 03:58:30;;;;;;;3.22;0.75;;;7.10;99.90;;;;;;5145755;27;20160;-69
2023/03/25 04:01:33;;;;;;;0.25;0.20;;;7.00;99.90;;;;;;5132762;27;20031;-70
2023/03/25 04:04:03;;;;;;;1.98;0.40;;;7.00;99.90;;;;;;5116773;27;20058;-70
2023/03/25 04:06:40;;;;;;;0.50;0.10;;;7.00;99.90;;;;;;5133677;27;20034;-70
2023/03/25 04:09:35;;;;;;;0.40;0.10;;;7.00;99.90;;;;;;5133499;27;20137;-70
2023/03/25 04:12:08;;;;;;;2.45;0.30;;;7.00;99.90;;;;;;5149237;27;20030;-70
2023/03/25 04:14:35;;;;;;;3.10;0.30;;;7.00;99.90;;;;;;5153555;27;20082;-70
2023/03/25 04:17:01;;;;;;;2.55;0.47;;;7.00;99.90;;;;;;5151953;27;20015;-71
2023/03/25 04:19:26;;;;;;;0.77;0.25;;;6.90;99.90;;;;;;5154001;27;20033;-70
2023/03/25 04:21:53;;;;;;;1.23;0.38;;;7.00;99.90;;;;;;5153228;27;20440;-70
2023/03/25 04:24:18;;;;;;;0.98;0.30;;;6.90;99.90;;;;;;5145589;27;20026;-72
2023/03/25 04:26:46;;;;;;;1.80;0.30;;;6.80;99.90;;;;;;5153393;27;20480;-71
2023/03/25 04:29:12;;;;;;;1.48;0.40;;;6.80;99.90;;;;;;5152783;27;20956;-70
2023/03/25 04:31:44;;;;;;;1.05;0.30;;;6.70;99.90;;;;;;5149704;27;20121;-70
2023/03/25 04:34:14;;;;;;;1.77;0.60;;;6.60;99.90;;;;;;5153093;27;20030;-70
2023/03/25 04:36:41;;;;;;;0.50;0.40;;;6.50;99.90;;;;;;5153279;27;20027;-70
2023/03/25 04:39:10;;;;;;;1.05;0.30;;;6.40;99.90;;;;;;5152448;27;20038;-70
2023/03/25 04:41:36;;;;;;;1.45;0.30;;;6.30;99.90;;;;;;5153155;27;20022;-70
2023/03/25 04:44:06;;;;;;;2.38;0.63;;;6.30;99.90;;;;;;5146703;27;20033;-70
2023/03/25 04:46:33;;;;;;;0.57;0.40;;;6.30;99.90;;;;;;5152439;27;20043;-70
2023/03/25 04:48:59;;;;;;;4.97;0.63;;;6.20;99.90;;;;;;5152210;27;20117;-70
2023/03/25 04:51:25;;;;;;;2.45;0.85;;;6.20;99.90;;;;;;5152570;27;20512;-71
2023/03/25 04:53:51;;;;;;;3.38;0.68;;;6.10;99.90;;;;;;5153501;27;20026;-68
2023/03/25 04:56:17;;;;;;;1.90;0.30;;;6.20;99.90;;;;;;5152076;27;20492;-70
2023/03/25 04:58:44;;;;;;;1.98;0.45;;;6.20;99.90;;;;;;5152913;27;20087;-71
2023/03/25 05:01:31;;;;;;;3.05;0.55;;;6.20;99.90;;;;;;5151856;27;20034;-70
2023/03/25 05:04:05;;;;;;;3.30;0.50;;;6.10;99.90;;;;;;5152081;27;20018;-70
2023/03/25 05:06:39;;;;;;;1.25;0.40;;;6.10;99.90;;;;;;5150726;27;20027;-70
2023/03/25 05:09:06;;;;;;;1.05;0.50;;;6.10;99.90;;;;;;5138891;27;20023;-70
2023/03/25 05:11:35;;;;;;;1.92;0.70;;;6.10;99.90;;;;;;5150955;27;20034;-71
2023/03/25 05:14:01;;;;;;;3.80;0.60;;;6.00;99.90;;;;;;5150593;27;20034;-70
2023/03/25 05:16:28;;;;;;;2.60;0.50;;;6.00;99.90;;;;;;5153377;27;20026;-71
2023/03/25 05:18:53;;;;;;;2.47;0.73;;;6.10;99.90;;;;;;5152965;27;20050;-70
2023/03/25 05:21:19;;;;;;;6.28;0.63;;;6.10;99.90;;;;;;5151635;27;20131;-71
2023/03/25 05:23:44;;;;;;;5.95;0.70;;;6.30;99.90;;;;;;5153484;27;20372;-71
2023/03/25 05:26:13;;;;;;;1.73;0.63;;;6.40;99.90;;;;;;5145512;27;20457;-71
2023/03/25 05:28:40;;;;;;;3.97;0.82;;;6.60;99.90;;;;;;5152995;27;20315;-71
2023/03/25 05:31:09;;;;;;;3.17;0.90;;;6.70;99.90;;;;;;5151686;27;20109;-70
2023/03/25 05:33:42;;;;;;;2.97;0.50;;;6.80;99.90;;;;;;5152886;27;20101;-71
2023/03/25 05:36:17;;;;;;;2.13;0.70;;;6.80;99.90;;;;;;5151824;27;20026;-70
2023/03/25 05:38:43;;;;;;;4.20;0.75;;;6.90;99.90;;;;;;5151195;27;20035;-70
2023/03/25 05:41:15;;;;;;;7.13;0.95;;;6.90;99.90;;;;;;5151494;27;20062;-78
2023/03/25 05:43:49;;;;;;;5.55;1.20;;;6.90;99.90;;;;;;5141400;27;20541;-75
2023/03/25 05:46:16;;;;;;;2.28;0.60;;;6.90;99.90;;;;;;5131102;28;20158;-75
2023/03/25 05:48:42;;;;;;;4.53;0.90;;;7.00;99.90;;;;;;5132190;28;20401;-75
2023/03/25 05:51:16;;;;;;;4.28;0.90;;;7.10;99.90;;;;;;5131249;28;20105;-76
2023/03/25 05:53:52;;;;;;;8.07;1.55;;;7.10;99.90;;;;;;5132713;28;20158;-74
2023/03/25 05:56:20;;;;;;;3.85;0.93;;;7.20;99.90;;;;;;5131234;28;20032;-74
2023/03/25 05:58:48;;;;;;;4.75;0.95;;;7.30;99.90;;;;;;5135003;27;20027;-74
2023/03/25 06:01:15;;;;;;;4.57;1.13;;;7.50;99.90;;;;;;5139202;27;20179;-74
2023/03/25 06:03:42;;;;;;;4.40;1.30;;;7.40;99.90;;;;;;5156387;27;20034;-74
2023/03/25 06:06:12;;;;;;;5.78;0.95;;;7.40;99.90;;;;;;5155157;27;20526;-74
2023/03/25 06:08:40;;;;;;;6.80;1.08;;;7.50;99.90;;;;;;5156524;27;20035;-72
2023/03/25 06:11:12;;;;;;;6.63;1.08;;;7.50;99.90;;;;;;5155012;27;20110;-72
2023/03/25 06:13:38;;;;;;;6.53;0.90;;;7.50;99.90;;;;;;5156332;27;20095;-72
2023/03/25 06:16:08;;;;;;;3.88;1.15;;;7.50;99.90;;;;;;5154953;27;20030;-71
2023/03/25 06:18:35;;;;;;;2.70;1.35;;;7.50;99.90;;;;;;5154664;27;20461;-71
2023/03/25 06:21:02;;;;;;;3.53;0.98;;;7.50;99.90;;;;;;5152889;27;20361;-71
2023/03/25 06:23:27;;;;;;;3.47;0.73;;;7.50;99.90;;;;;;5156186;27;20026;-71
2023/03/25 06:25:53;;;;;;;5.05;0.77;;;7.60;99.90;;;;;;5154925;27;20521;-69
2023/03/25 06:28:20;;;;;;;7.75;1.85;;;7.60;99.90;;;;;;5153788;27;20017;-70
2023/03/25 06:30:47;;;;;;;5.53;1.25;;;7.60;99.90;;;;;;5139812;27;20038;-72
2023/03/25 06:33:14;;;;;;;5.57;1.10;;;7.70;99.90;;;;;;5154221;27;20753;-71
2023/03/25 06:35:41;;;;;;;6.53;1.20;;;7.80;99.90;;;;;;5154926;27;20357;-71
2023/03/25 06:38:08;;;;;;;4.40;0.98;;;7.80;99.90;;;;;;5154074;27;20030;-71
2023/03/25 06:40:37;;;;;;;3.33;0.90;;;7.80;99.90;;;;;;5155098;27;20053;-72
2023/03/25 06:43:04;;;;;;;5.38;1.25;;;7.80;99.90;;;;;;5154689;27;20373;-72
2023/03/25 06:45:30;;;;;;;3.17;0.88;;;7.80;99.90;;;;;;5154034;27;20025;-72
2023/03/25 06:47:56;;;;;;;3.72;0.70;;;7.80;99.90;;;;;;5129797;27;20050;-70
2023/03/25 06:50:24;;;;;;;2.83;0.70;;;7.90;99.90;;;;;;5133644;27;20031;-71
2023/03/25 06:52:49;;;;;;;6.03;0.90;;;8.00;99.90;;;;;;5134468;27;20023;-71
2023/03/25 06:55:15;;;;;;;3.78;0.80;;;8.10;99.90;;;;;;5133354;27;20111;-71
2023/03/25 06:57:42;;;;;;;3.35;0.80;;;8.10;99.90;;;;;;5134982;27;20024;-71
2023/03/25 07:00:10;;;;;;;6.82;0.90;;;8.20;99.90;;;;;;5133276;27;20485;-71
2023/03/25 07:02:36;;;;;;;2.08;0.60;;;8.20;99.90;;;;;;5133816;27;20131;-71
2023/03/25 07:05:03;;;;;;;3.83;0.95;;;8.20;99.90;;;;;;5133800;27;20027;-70
2023/03/25 07:07:29;;;;;;;4.32;0.88;;;8.10;99.90;;;;;;5135109;27;20039;-71
2023/03/25 07:09:55;;;;;;;3.90;0.80;;;8.10;99.90;;;;;;5134522;27;20027;-70
2023/03/25 07:12:21;;;;;;;3.85;0.80;;;8.10;99.90;;;;;;5132062;27;20023;-71
2023/03/25 07:14:54;;;;;;;4.30;0.90;;;8.10;99.90;;;;;;5114629;27;20398;-71
2023/03/25 07:17:21;;;;;;;4.80;1.20;;;8.20;99.90;;;;;;5134536;27;20034;-71
2023/03/25 07:19:47;;;;;;;3.05;1.27;;;8.20;99.90;;;;;;5116436;27;20026;-71
2023/03/25 07:22:12;;;;;;;4.20;0.80;;;8.30;99.90;;;;;;5127902;27;20038;-71
2023/03/25 07:24:38;;;;;;;5.03;0.80;;;8.50;99.90;;;;;;5115234;27;20394;-70
2023/03/25 07:27:09;;;;;;;4.82;0.70;;;8.60;99.90;;;;;;5123294;27;20019;-70
2023/03/25 07:29:35;;;;;;;5.95;0.80;;;8.70;99.90;;;;;;5129371;27;20054;-71
2023/03/25 07:32:01;;;;;;;4.15;0.77;;;8.70;99.90;;;;;;5125021;27;20478;-70
2023/03/25 07:34:26;;;;;;;3.35;0.60;;;8.70;99.90;;;;;;5130179;27;20382;-70
2023/03/25 07:36:52;;;;;;;3.67;0.80;;;8.70;99.90;;;;;;5129032;27;20092;-70
2023/03/25 07:39:18;;;;;;;3.17;0.80;;;8.80;99.90;;;;;;5130029;27;20035;-71
2023/03/25 07:41:46;;;;;;;2.45;0.77;;;8.90;99.90;;;;;;5133633;27;20027;-70
2023/03/25 07:44:11;;;;;;;0.73;0.50;;;9.00;99.90;;;;;;5118496;27;20051;-70
2023/03/25 07:46:40;;;;;;;1.05;0.50;;;9.20;99.90;;;;;;5132446;27;20098;-69
2023/03/25 07:49:06;;;;;;;4.05;0.63;;;9.40;99.90;;;;;;5124898;27;20424;-69
2023/03/25 07:51:33;;;;;;;3.97;0.60;;;9.60;99.90;;;;;;5132661;27;20019;-70
2023/03/25 07:54:01;;;;;;;3.50;0.60;;;9.70;99.90;;;;;;5130386;27;20063;-70
2023/03/25 07:56:30;;;;;;;2.38;0.60;;;9.80;99.90;;;;;;5132300;27;20024;-69
2023/03/25 07:58:55;;;;;;;3.67;0.98;;;9.70;99.90;;;;;;5130804;27;20374;-69
2023/03/25 08:01:21;;;;;;;1.83;0.50;;;9.80;99.90;;;;;;5132860;27;20027;-69
2023/03/25 08:03:46;;;;;;;4.18;0.77;;;9.90;99.90;;;;;;5133310;27;20039;-69
2023/03/25 08:06:12;;;;;;;1.75;0.40;;;10.00;99.90;;;;;;5124015;27;20028;-69
2023/03/25 08:08:38;;;;;;;3.90;0.65;;;10.10;99.90;;;;;;5133178;27;20075;-70
2023/03/25 08:11:04;;;;;;;2.10;0.57;;;10.10;99.90;;;;;;5119513;27;20039;-71
2023/03/25 08:13:29;;;;;;;2.15;0.40;;;10.10;99.90;;;;;;5132833;27;20023;-70
2023/03/25 08:15:55;;;;;;;2.05;0.60;;;10.10;99.90;;;;;;5128986;27;20096;-70
2023/03/25 08:18:22;;;;;;;3.78;0.60;;;10.10;99.90;;;;;;5132705;27;20458;-71
2023/03/25 08:20:49;;;;;;;4.60;0.55;;;10.00;99.90;;;;;;5123222;27;20031;-72
2023/03/25 08:23:17;;;;;;;2.78;0.50;;;10.10;99.90;;;;;;5131803;27;20449;-71
2023/03/25 08:25:43;;;;;;;2.20;0.70;;;10.20;99.90;;;;;;5128899;27;20023;-69
2023/03/25 08:28:09;;;;;;;3.65;0.68;;;10.30;99.90;;;;;;5132010;27;20098;-68
2023/03/25 08:30:37;;;;;;;5.25;0.80;;;10.40;99.90;;;;;;5119237;27;20477;-70
2023/03/25 08:33:06;;;;;;;1.92;0.50;;;10.50;99.90;;;;;;5130801;27;20118;-69
2023/03/25 08:35:33;;;;;;;1.15;0.40;;;10.50;99.90;;;;;;5129091;27;20555;-67
2023/03/25 08:38:00;;;;;;;1.67;0.40;;;10.70;99.90;;;;;;5131567;27;20105;-71
2023/03/25 08:40:26;;;;;;;2.20;0.50;;;10.80;99.90;;;;;;5127782;27;20039;-69
2023/03/25 08:42:52;;;;;;;3.22;0.38;;;10.80;99.90;;;;;;5132253;27;20027;-66
2023/03/25 08:45:18;;;;;;;2.25;0.30;;;10.60;99.90;;;;;;5129860;27;20031;-70
2023/03/25 08:47:44;;;;;;;1.58;0.30;;;10.40;99.90;;;;;;5153353;27;20043;-72
2023/03/25 08:50:10;;;;;;;1.52;0.35;;;10.10;99.90;;;;;;5141527;27;20393;-71
2023/03/25 08:52:36;;;;;;;0.40;0.22;;;9.80;99.90;;;;;;5134348;27;20058;-72
2023/03/25 08:55:03;;;;;;;1.52;0.35;;;9.40;99.90;;;;;;5148548;27;20054;-71
2023/03/25 08:57:29;;;;;;;0.90;0.40;;;9.10;99.90;;;;;;5154579;27;20034;-70
2023/03/25 08:59:54;;;;;;;0.32;0.30;;;8.80;99.90;;;;;;5145119;27;20027;-69
2023/03/25 09:02:20;;;;;;;1.73;0.20;;;8.60;99.90;;;;;;5128204;27;20031;-71
2023/03/25 09:04:49;;;;;;;0.80;0.20;;;8.40;99.90;;;;;;5140496;27;20027;-72
2023/03/25 09:07:14;;;;;;;1.15;0.40;;;8.30;99.90;;;;;;5152313;27;20064;-70
2023/03/25 09:09:40;;;;;;;0.80;0.20;;;8.20;99.90;;;;;;5151420;27;20058;-77
2023/03/25 09:12:08;;;;;;;1.65;0.30;;;8.20;99.90;;;;;;5151609;27;20019;-71
2023/03/25 09:14:34;;;;;;;2.00;0.63;;;8.20;99.90;;;;;;5141483;27;20090;-78
2023/03/25 09:16:59;;;;;;;3.03;0.77;;;8.20;99.90;;;;;;5148708;27;20019;-72
2023/03/25 09:19:27;;;;;;;1.92;0.32;;;8.10;99.90;;;;;;5147728;27;20106;-80
2023/03/25 09:21:53;;;;;;;1.83;0.43;;;8.10;99.90;;;;;;5131410;27;20076;-72
2023/03/25 09:24:21;;;;;;;0.73;0.30;;;8.10;99.90;;;;;;5133156;27;20366;-80
2023/03/25 09:26:47;;;;;;;2.90;0.60;;;8.30;99.90;;;;;;5152368;27;20079;-75
2023/03/25 09:29:13;;;;;;;0.68;0.20;;;8.40;99.90;;;;;;5148556;27;20627;-76
2023/03/25 09:31:41;;;;;;;1.40;0.30;;;8.60;99.90;;;;;;5148436;27;20100;-80
2023/03/25 09:34:06;;;;;;;0.98;0.43;;;8.80;99.90;;;;;;5147107;27;20039;-79
2023/03/25 09:36:32;;;;;;;2.78;0.30;;;8.90;99.90;;;;;;5142121;27;20173;-80
2023/03/25 09:38:57;;;;;;;1.13;0.30;;;9.00;99.90;;;;;;5149565;27;20114;-74
2023/03/25 09:41:42;;;;;;;0.43;0.30;;;9.20;99.90;;;;;;5150871;27;20038;-76
2023/03/25 09:44:27;;;;;;;1.13;0.40;;;9.30;99.90;;;;;;5148794;27;21552;-73
2023/03/25 09:46:55;;;;;;;2.15;0.52;;;9.40;99.90;;;;;;5144736;27;20493;-73
2023/03/25 09:49:40;;;;;;;1.50;0.60;;;9.50;99.90;;;;;;5147130;27;20458;-80
2023/03/25 09:52:15;;;;;;;1.33;0.45;;;9.60;99.90;;;;;;5136947;27;20023;-75
2023/03/25 09:54:56;;;;;;;2.30;0.47;;;9.90;99.90;;;;;;5150564;27;20110;-74
2023/03/25 09:57:29;;;;;;;1.02;0.50;;;10.10;99.90;;;;;;5151251;27;20023;-76
2023/03/25 09:59:58;;;;;;;1.55;0.50;;;10.40;99.90;;;;;;5145756;27;20034;-76
2023/03/25 10:02:30;;;;;;;0.95;0.30;;;10.70;99.90;;;;;;5143469;27;20453;-74
2023/03/25 10:05:31;;;;;;;0.95;0.60;;;10.70;99.90;;;;;;5148356;27;20465;-71
2023/03/25 10:08:25;;;;;;;0.38;0.38;;;10.70;99.90;;;;;;5147813;27;20080;-72
2023/03/25 10:11:06;;;;;;;1.88;0.60;;;10.60;99.90;;;;;;5148148;27;20026;-70
2023/03/25 10:13:35;;;;;;;1.45;0.40;;;10.80;99.90;;;;;;5151262;27;20031;-73
2023/03/25 10:16:16;;;;;;;2.45;0.57;;;10.90;99.90;;;;;;5138243;27;20098;-71
2023/03/25 10:18:58;;;;;;;2.60;0.90;;;10.90;99.90;;;;;;5151814;27;20027;-71
2023/03/25 10:21:41;;;;;;;1.23;0.50;;;10.90;99.90;;;;;;5148991;27;20384;-75
2023/03/25 10:24:16;;;;;;;2.42;0.75;;;10.70;99.90;;;;;;5147992;27;20039;-74
2023/03/25 10:26:49;;;;;;;0.90;0.50;;;10.70;99.90;;;;;;5143228;27;20030;-75
2023/03/25 10:29:39;;;;;;;4.22;0.45;;;10.80;99.90;;;;;;5146759;27;20622;-70
2023/03/25 10:32:35;;;;;;;2.38;0.40;;;10.90;99.90;;;;;;5100095;27;20038;-69
2023/03/25 10:35:04;;;;;;;1.30;0.50;;;11.20;99.90;;;;;;5084598;27;20129;-69
2023/03/25 10:37:35;;;;;;;2.20;0.50;;;11.60;99.90;;;;;;5152600;27;20460;-70
2023/03/25 10:40:24;;;;;;;1.15;0.70;;;12.10;99.90;;;;;;5151013;27;20067;-70
2023/03/25 10:43:05;;;;;;;1.20;0.60;;;12.60;99.90;;;;;;5133727;27;20034;-70
2023/03/25 10:45:34;;;;;;;2.03;0.68;;;12.90;99.90;;;;;;5151078;27;20023;-71
2023/03/25 10:48:30;;;;;;;0.65;0.25;;;13.00;99.90;;;;;;5127600;27;20037;-70
2023/03/25 10:51:11;;;;;;;1.25;0.60;;;13.00;99.90;;;;;;5149554;27;20042;-68
2023/03/25 10:53:41;;;;;;;1.52;0.55;;;13.10;99.90;;;;;;5177089;27;20018;-71
2023/03/25 10:56:16;;;;;;;1.05;0.38;;;13.20;99.90;;;;;;5175461;27;20097;-70
2023/03/25 10:58:47;;;;;;;0.60;0.30;;;13.00;99.90;;;;;;5172131;27;20023;-70
2023/03/25 11:01:16;;;;;;;1.10;0.30;;;12.70;99.90;;;;;;5153338;27;20590;-70
2023/03/25 11:03:50;;;;;;;2.05;0.55;;;12.50;99.90;;;;;;5155838;27;20031;-71
2023/03/25 11:06:29;;;;;;;2.30;0.50;;;12.50;99.90;;;;;;5149927;27;20743;-70
2023/03/25 11:09:23;;;;;;;1.35;0.50;;;12.70;99.90;;;;;;5144269;27;20503;-67
2023/03/25 11:11:49;;;;;;;0.85;0.40;;;12.70;99.90;;;;;;5153278;27;20037;-70
2023/03/25 11:14:20;;;;;;;1.25;0.40;;;12.80;99.90;;;;;;5154554;27;20079;-70
2023/03/25 11:16:51;;;;;;;1.08;0.40;;;12.70;99.90;;;;;;5154442;27;20033;-70
2023/03/25 11:19:25;;;;;;;1.77;0.40;;;12.50;99.90;;;;;;5154315;27;20029;-71
2023/03/25 11:22:01;;;;;;;0.20;0.20;;;12.50;99.90;;;;;;5154486;27;20026;-71
2023/03/25 11:24:39;;;;;;;2.20;0.50;;;12.70;99.90;;;;;;5154626;27;20015;-73
2023/03/25 11:27:07;;;;;;;2.53;0.43;;;12.80;99.90;;;;;;5153810;27;20019;-73
2023/03/25 11:29:35;;;;;;;2.13;0.75;;;13.00;99.90;;;;;;5153877;27;20030;-75
2023/03/25 11:32:07;;;;;;;0.93;0.70;;;13.20;99.90;;;;;;5153874;27;20115;-74
2023/03/25 11:34:40;;;;;;;1.67;0.70;;;13.40;99.90;;;;;;5154955;27;20019;-73
2023/03/25 11:37:14;;;;;;;7.63;1.40;;;13.70;99.90;;;;;;5153687;27;20031;-73
2023/03/25 11:39:41;;;;;;;1.98;0.50;;;13.80;99.90;;;;;;5154961;27;20027;-75
2023/03/25 11:42:15;;;;;;;3.20;0.98;;;13.90;99.90;;;;;;5152893;27;20047;-74
2023/03/25 11:44:41;;;;;;;2.53;0.50;;;14.00;99.90;;;;;;5155025;27;20027;-74
2023/03/25 11:47:09;;;;;;;2.35;0.80;;;14.00;99.90;;;;;;5144228;27;20034;-76
2023/03/25 11:49:41;;;;;;;2.00;0.50;;;14.30;99.90;;;;;;5153934;27;20019;-75
2023/03/25 11:52:25;;;;;;;3.10;0.40;;;14.50;99.90;;;;;;5130647;27;20110;-71
2023/03/25 11:54:55;;;;;;;1.63;0.40;;;14.80;99.90;;;;;;5153458;27;20110;-75
2023/03/25 11:57:27;;;;;;;3.03;0.47;;;15.20;99.00;;;;;;5147106;27;20026;-72
2023/03/25 12:00:23;;;;;;;2.13;0.63;;;15.30;98.50;;;;;;5146478;27;20067;-71
2023/03/25 12:03:06;;;;;;;1.60;0.60;;;15.40;98.10;;;;;;5144387;27;20151;-71
2023/03/25 12:05:32;;;;;;;1.95;0.93;;;15.50;97.80;;;;;;5151537;27;20101;-74
2023/03/25 12:08:15;;;;;;;2.60;0.77;;;15.40;97.80;;;;;;5154566;27;20041;-72
2023/03/25 12:11:02;;;;;;;1.40;0.60;;;15.20;97.80;;;;;;5152734;27;20079;-73
2023/03/25 12:13:52;;;;;;;1.05;0.60;;;15.20;97.90;;;;;;5143201;27;20106;-72
2023/03/25 12:16:47;;;;;;;1.35;0.60;;;15.50;97.60;;;;;;5140176;27;20053;-72
2023/03/25 12:19:49;;;;;;;1.42;0.57;;;15.60;97.00;;;;;;5153747;27;20344;-80
2023/03/25 12:22:34;;;;;;;1.25;0.45;;;15.90;97.00;;;;;;5107307;27;20042;-72
2023/03/25 12:25:03;;;;;;;3.08;0.68;;;15.90;95.30;;;;;;5153101;27;20022;-76
2023/03/25 12:27:51;;;;;;;1.57;0.77;;;16.00;95.60;;;;;;5135321;27;20464;-74
2023/03/25 12:30:32;;;;;;;3.10;0.50;;;16.10;94.90;;;;;;5146310;27;20284;-76
2023/03/25 12:33:27;;;;;;;1.73;0.55;;;16.30;94.40;;;;;;5149863;27;20022;-75
2023/03/25 12:36:24;;;;;;;0.85;0.60;;;16.30;94.10;;;;;;5148186;27;20041;-73
2023/03/25 12:38:53;;;;;;;1.40;0.55;;;16.40;93.80;;;;;;5132724;27;20042;-72
2023/03/25 12:41:34;;;;;;;2.97;0.50;;;16.30;93.60;;;;;;5141505;27;20380;-72
2023/03/25 12:44:21;;;;;;;1.48;0.65;;;15.90;94.60;;;;;;5153142;27;20046;-72
2023/03/25 12:47:01;;;;;;;3.17;0.70;;;15.50;94.60;;;;;;5139617;27;20058;-72
2023/03/25 12:49:35;;;;;;;2.75;0.85;;;14.90;95.00;;;;;;5132566;27;20473;-72
2023/03/25 12:52:12;;;;;;;4.70;0.70;;;14.00;98.90;;;;;;5145376;27;20038;-72
2023/03/25 12:54:53;;;;;;;3.38;1.00;;;;;;;;;;5153994;27;20023;-72
2023/03/25 12:57:21;;;;;;;2.85;0.90;;;12.20;99.90;;;;;;5136198;27;20465;-72
2023/03/25 13:00:06;;;;;;;2.55;0.50;;;11.70;99.90;;;;;;5151436;27;20121;-73
2023/03/25 13:03:06;;;;;;;2.40;0.60;;;11.70;99.90;;;;;;5152113;27;20035;-75
2023/03/25 13:06:03;;;;;;;3.90;0.93;;;12.10;99.90;;;;;;5150866;27;20062;-73
2023/03/25 13:08:34;;;;;;;1.73;0.50;;;12.50;99.90;;;;;;5132059;27;20477;-74
2023/03/25 13:11:11;;;;;;;3.45;0.68;;;13.00;99.90;;;;;;5131349;27;20023;-74
2023/03/25 13:13:38;;;;;;;0.80;0.60;;;13.30;99.90;;;;;;5132589;27;20389;-73
2023/03/25 13:16:10;;;;;;;2.70;0.63;;;13.60;99.90;;;;;;5135251;27;20049;-72
2023/03/25 13:18:38;;;;;;;1.83;0.50;;;14.00;99.90;;;;;;5153154;27;20054;-73
2023/03/25 13:21:20;;;;;;;2.28;0.77;;;14.40;99.90;;;;;;5145508;27;20031;-75